HMS Liberty — WDD7435 — position and weather

sailwx.info

Track history (hours):
 
Tides and Currents Weather Stations Pressure Air Temp Water Temp Dewpoint Dewpoint Depression Visibility Wind Speed Wind Dir Waves Ship Positions

HMS Liberty

Owner: Harley Marine Services, Inc., Seattle, WA. More information available from US FCC via Universal Licensing System and Coast Guard Vessel Documentation Center.

Last reported at 2018-Jun-19 01:30 UTC. Time now 2018-Jun-19 01:28 UTC.
Position N 40°37' W 074°03'.

Length 26 m.

Type: Towing. MMSI: 367100050.

Date/timePositionNaut miles runAvg speedWind from/ knotsBaromVisibWave heightAir tempDewpointWater temp
2018-Jun-19 01:30N 40°37' W 074°03'1 1.4
2018-Jun-19 01:00N 40°37' W 074°03'1 1.5
2018-Jun-19 00:30N 40°37' W 074°04'1 1.9
2018-Jun-19 00:00N 40°38' W 074°04'1 2.5
2018-Jun-18 23:30N 40°39' W 074°05'1 2.3
2018-Jun-18 23:00N 40°39' W 074°07'0 0.0
2018-Jun-18 22:30N 40°39' W 074°07'0 0.0
2018-Jun-18 22:00N 40°39' W 074°07'0 0.0
2018-Jun-18 21:30N 40°39' W 074°07'0 0.0
2018-Jun-18 20:58N 40°39' W 074°07'0 0.0
2018-Jun-18 20:30N 40°39' W 074°07'0 0.0
2018-Jun-18 20:00N 40°39' W 074°07'0 0.0
2018-Jun-18 19:30N 40°39' W 074°07'0 0.0
2018-Jun-18 19:00N 40°39' W 074°07'0 0.0
2018-Jun-18 18:30N 40°39' W 074°07'0 0.0
2018-Jun-18 18:00N 40°39' W 074°07'0 0.0
2018-Jun-18 17:30N 40°39' W 074°07'0 0.0
2018-Jun-18 17:00N 40°39' W 074°07'0 0.0
2018-Jun-18 16:30N 40°39' W 074°07'0 0.0
2018-Jun-18 16:00N 40°39' W 074°07'0 0.0
2018-Jun-18 15:30N 40°39' W 074°07'0 0.0
2018-Jun-18 15:00N 40°39' W 074°07'0 0.0
2018-Jun-18 14:30N 40°39' W 074°07'0 0.0
2018-Jun-18 14:00N 40°39' W 074°07'0 0.0
2018-Jun-18 13:30N 40°39' W 074°07'0 0.0
2018-Jun-18 13:00N 40°39' W 074°07'0 0.0
2018-Jun-18 12:29N 40°39' W 074°07'0 0.0
2018-Jun-18 11:59N 40°39' W 074°07'0 0.0
2018-Jun-18 11:30N 40°39' W 074°07'0 0.0
2018-Jun-18 11:00N 40°39' W 074°07'0 0.0
2018-Jun-18 10:30N 40°39' W 074°07'0 0.0
2018-Jun-18 10:00N 40°39' W 074°07'0 0.0
2018-Jun-18 09:30N 40°39' W 074°07'0 0.0
2018-Jun-18 09:00N 40°39' W 074°07'0 0.0
2018-Jun-18 08:30N 40°39' W 074°07'0 0.0
2018-Jun-18 08:00N 40°39' W 074°07'0 0.0
2018-Jun-18 07:30N 40°39' W 074°07'0 0.0
2018-Jun-18 07:00N 40°39' W 074°07'0 0.0
2018-Jun-18 06:30N 40°39' W 074°07'0 0.0
2018-Jun-18 06:00N 40°39' W 074°07'0 0.0
2018-Jun-18 05:30N 40°39' W 074°07'0 0.0
2018-Jun-18 05:00N 40°39' W 074°07'0 0.0
2018-Jun-18 04:30N 40°39' W 074°07'2 4.5
2018-Jun-18 04:00N 40°39' W 074°04'1 2.8
2018-Jun-18 03:30N 40°38' W 074°04'0 0.2
2018-Jun-18 03:00N 40°38' W 074°04'0 0.3
2018-Jun-18 02:30N 40°38' W 074°03'2 3.4
2018-Jun-18 02:00N 40°36' W 074°02'3 5.9
2018-Jun-18 01:28N 40°34' W 073°59'3 6.7
2018-Jun-18 01:00N 40°34' W 073°55'3 0.2
2018-Jun-17 13:37N 40°34' W 073°59'1 6.0
2018-Jun-17 13:30N 40°34' W 073°59'3 5.3
2018-Jun-17 13:00N 40°36' W 074°02'3 6.2
2018-Jun-17 12:26N 40°39' W 074°04'2 4.2
2018-Jun-17 12:00N 40°39' W 074°07'3 4.8
2018-Jun-17 11:26N 40°39' W 074°10'2 0.1
2018-Jun-16 22:34N 40°38' W 074°12'1 8.4
2018-Jun-16 22:30N 40°38' W 074°12'4 7.6
2018-Jun-16 22:00N 40°39' W 074°07'4 7.1
2018-Jun-16 21:30N 40°39' W 074°02'2 3.3
2018-Jun-16 21:00N 40°40' W 073°60'0 0.1
2018-Jun-16 20:30N 40°40' W 074°00'0 0.0
2018-Jun-16 20:00N 40°40' W 074°00'0 0.0
2018-Jun-16 19:30N 40°40' W 074°00'0 0.0
2018-Jun-16 19:00N 40°40' W 074°00'0 0.0
2018-Jun-16 18:31N 40°40' W 074°00'0 0.0
2018-Jun-16 18:00N 40°40' W 074°00'1 1.3
2018-Jun-16 17:30N 40°40' W 074°01'4 7.3
2018-Jun-16 17:00N 40°36' W 074°02'1 1.5
2018-Jun-16 16:28N 40°36' W 074°01'0 0.0
2018-Jun-16 15:36N 40°36' W 074°01'0 0.0
2018-Jun-16 15:26N 40°36' W 074°01'0 0.0
2018-Jun-16 14:51N 40°36' W 074°01'0 0.1
2018-Jun-16 14:30N 40°36' W 074°01'0 0.1
2018-Jun-16 13:57N 40°36' W 074°01'0 0.0
2018-Jun-16 12:19N 40°36' W 074°01'0 0.0
2018-Jun-16 11:58N 40°36' W 074°01'0 0.1
2018-Jun-16 11:27N 40°36' W 074°01'0 0.1
2018-Jun-16 11:00N 40°36' W 074°01'0 0.3
2018-Jun-16 10:28N 40°36' W 074°01'0 0.2
2018-Jun-16 09:58N 40°36' W 074°01'0 0.0
2018-Jun-16 09:29N 40°36' W 074°01'2 4.4
2018-Jun-16 09:00N 40°37' W 074°03'2 4.7
2018-Jun-16 08:30N 40°39' W 074°06'0 0.0
2018-Jun-16 08:00N 40°39' W 074°06'0 0.0
2018-Jun-16 07:30N 40°39' W 074°06'0 0.0
2018-Jun-16 07:00N 40°39' W 074°06'0 0.0
2018-Jun-16 06:30N 40°39' W 074°06'0 0.0
2018-Jun-16 06:00N 40°39' W 074°06'0 0.2
2018-Jun-16 05:30N 40°39' W 074°06'5 4.9
2018-Jun-16 04:30N 40°38' W 074°12'1 1.2
2018-Jun-16 03:48N 40°38' W 074°12'0 0.0
2018-Jun-16 03:27N 40°38' W 074°12'0 0.0
2018-Jun-16 02:40N 40°38' W 074°12'0 0.4
2018-Jun-16 02:15N 40°38' W 074°11'2 6.9
2018-Jun-16 01:59N 40°39' W 074°09'4 8.8
2018-Jun-16 01:30N 40°39' W 074°04'3 5.8
2018-Jun-16 01:00N 40°40' W 074°00'0 0.1
2018-Jun-16 00:30N 40°40' W 074°00'0 0.0
2018-Jun-16 00:00N 40°40' W 074°00'0 0.0
2018-Jun-15 23:30N 40°40' W 074°00'0 0.0
2018-Jun-15 23:00N 40°40' W 074°00'0 0.0
2018-Jun-15 22:30N 40°40' W 074°00'0 0.0
2018-Jun-15 22:00N 40°40' W 074°00'3 5.1
2018-Jun-15 21:30N 40°39' W 074°03'2 4.0
2018-Jun-15 21:00N 40°39' W 074°06'0 0.0
2018-Jun-15 20:30N 40°39' W 074°06'0 0.0
2018-Jun-15 19:51N 40°39' W 074°06'0 0.0
2018-Jun-15 19:30N 40°39' W 074°06'0 0.0
2018-Jun-15 19:00N 40°39' W 074°06'1 1.2
2018-Jun-15 17:50N 40°39' W 074°08'2 0.8
2018-Jun-15 15:40N 40°39' W 074°10'1 5.8
2018-Jun-15 15:30N 40°38' W 074°09'2 3.4
2018-Jun-15 14:59N 40°39' W 074°06'2 4.5
2018-Jun-15 14:31N 40°39' W 074°04'0 0.3
2018-Jun-15 14:00N 40°39' W 074°04'0 0.1
2018-Jun-15 13:30N 40°39' W 074°04'3 6.2
2018-Jun-15 13:01N 40°40' W 074°00'1 1.8
2018-Jun-15 12:30N 40°40' W 074°01'5 7.1
2018-Jun-15 11:45N 40°34' W 074°01'2 8.2
2018-Jun-15 11:30N 40°34' W 073°58'8 0.4
2018-Jun-14 13:58N 40°36' W 073°48'2 4.6
2018-Jun-14 13:28N 40°35' W 073°51'5 7.9
2018-Jun-14 12:48N 40°34' W 073°57'3 7.2
2018-Jun-14 12:23N 40°34' W 074°01'3 6.7
2018-Jun-14 12:00N 40°37' W 074°03'3 6.0
2018-Jun-14 11:30N 40°39' W 074°05'3 5.2
2018-Jun-14 10:57N 40°39' W 074°09'3 7.0
2018-Jun-14 10:30N 40°42' W 074°07'0 1.0
2018-Jun-14 10:00N 40°42' W 074°07'0 0.0
2018-Jun-14 09:30N 40°42' W 074°07'0 0.0
2018-Jun-14 09:00N 40°42' W 074°07'0 0.0
2018-Jun-14 08:30N 40°42' W 074°07'0 0.0
2018-Jun-14 08:00N 40°42' W 074°07'0 0.0
2018-Jun-14 07:30N 40°42' W 074°07'0 0.0
2018-Jun-14 07:00N 40°42' W 074°07'0 0.0
2018-Jun-14 06:30N 40°42' W 074°07'0 0.0
2018-Jun-14 06:00N 40°42' W 074°07'0 0.0
2018-Jun-14 05:30N 40°42' W 074°07'0 0.0
2018-Jun-14 05:00N 40°42' W 074°07'0 0.0
2018-Jun-14 04:30N 40°42' W 074°07'0 0.0
2018-Jun-14 04:00N 40°42' W 074°07'0 0.0
2018-Jun-14 03:30N 40°42' W 074°07'0 0.0
2018-Jun-14 03:00N 40°42' W 074°07'0 0.0
2018-Jun-14 02:30N 40°42' W 074°07'2 4.3
2018-Jun-14 01:59N 40°40' W 074°08'4 0.3
2018-Jun-13 11:22N 40°38' W 074°12'2 6.9
2018-Jun-13 11:00N 40°39' W 074°09'4 8.7
2018-Jun-13 10:30N 40°39' W 074°03'2 5.0
2018-Jun-13 10:00N 40°40' W 074°00'0 0.0
2018-Jun-13 09:30N 40°40' W 074°00'0 0.0
2018-Jun-13 09:00N 40°40' W 074°00'0 0.0
2018-Jun-13 08:30N 40°40' W 074°00'0 0.0
2018-Jun-13 08:00N 40°40' W 074°00'2 3.9
2018-Jun-13 07:30N 40°39' W 074°02'3 4.6
2018-Jun-13 06:55N 40°39' W 074°06'0 0.0
2018-Jun-13 06:25N 40°39' W 074°06'0 0.0
2018-Jun-13 06:00N 40°39' W 074°06'0 0.0
2018-Jun-13 05:30N 40°39' W 074°06'0 0.0
2018-Jun-13 04:59N 40°39' W 074°06'0 0.0
2018-Jun-13 04:30N 40°39' W 074°06'0 0.0
2018-Jun-13 04:00N 40°39' W 074°06'1 1.9
2018-Jun-13 03:30N 40°39' W 074°05'4 7.2
2018-Jun-13 03:00N 40°36' W 074°02'1 0.5
2018-Jun-13 01:55N 40°36' W 074°01'0 0.1
2018-Jun-13 01:29N 40°36' W 074°01'0 0.0
2018-Jun-13 00:33N 40°36' W 074°01'0 0.1
2018-Jun-13 00:29N 40°36' W 074°01'0 0.0
2018-Jun-13 00:00N 40°36' W 074°01'0 0.0
2018-Jun-12 23:29N 40°36' W 074°01'0 0.0
2018-Jun-12 22:59N 40°36' W 074°01'0 0.0
2018-Jun-12 22:30N 40°36' W 074°01'0 0.0
2018-Jun-12 21:59N 40°36' W 074°01'0 0.0
2018-Jun-12 21:25N 40°36' W 074°01'0 0.0
2018-Jun-12 21:00N 40°36' W 074°01'0 0.0
2018-Jun-12 20:29N 40°36' W 074°01'0 0.0
2018-Jun-12 20:00N 40°36' W 074°01'0 0.1
2018-Jun-12 19:30N 40°36' W 074°01'0 0.0
2018-Jun-12 18:59N 40°36' W 074°01'0 0.0
2018-Jun-12 18:27N 40°36' W 074°01'0 0.0
2018-Jun-12 18:01N 40°36' W 074°01'0 0.4
2018-Jun-12 17:30N 40°36' W 074°01'3 5.5
2018-Jun-12 17:00N 40°38' W 074°03'3 5.2
2018-Jun-12 16:30N 40°40' W 074°00'0 0.0
2018-Jun-12 16:00N 40°40' W 074°00'0 0.0
2018-Jun-12 15:30N 40°40' W 074°00'0 0.0
2018-Jun-12 15:00N 40°40' W 073°60'0 0.0
2018-Jun-12 14:30N 40°40' W 074°00'0 0.0
2018-Jun-12 14:00N 40°40' W 074°00'0 0.0
2018-Jun-12 13:30N 40°40' W 074°00'0 0.0
2018-Jun-12 13:00N 40°40' W 074°00'0 0.0
2018-Jun-12 12:30N 40°40' W 074°00'0 0.0
2018-Jun-12 12:00N 40°40' W 074°00'0 0.0
2018-Jun-12 11:30N 40°40' W 074°00'0 0.0
2018-Jun-12 11:00N 40°40' W 074°00'0 0.0
2018-Jun-12 10:28N 40°40' W 074°00'0 0.0
2018-Jun-12 10:00N 40°40' W 074°00'0 0.0
2018-Jun-12 09:30N 40°40' W 073°60'0 0.0
2018-Jun-12 09:00N 40°40' W 074°00'0 0.0
2018-Jun-12 06:20N 40°40' W 074°00'0 0.0
2018-Jun-12 05:59N 40°40' W 074°00'0 0.0
2018-Jun-12 05:30N 40°40' W 074°00'0 0.0
2018-Jun-12 04:47N 40°40' W 074°00'0 0.0
2018-Jun-12 04:20N 40°40' W 074°00'0 0.0
2018-Jun-12 03:23N 40°40' W 074°00'0 0.0
2018-Jun-12 02:50N 40°40' W 074°00'0 0.0
2018-Jun-12 02:17N 40°40' W 074°00'0 0.0
2018-Jun-12 01:56N 40°40' W 074°00'0 0.0
2018-Jun-12 01:11N 40°40' W 074°00'0 0.0
2018-Jun-12 00:53N 40°40' W 074°00'0 0.0
2018-Jun-12 00:14N 40°40' W 074°00'0 0.0
2018-Jun-12 00:00N 40°40' W 074°00'0 0.0
2018-Jun-11 23:29N 40°40' W 074°00'0 0.0
2018-Jun-11 22:49N 40°40' W 074°00'0 0.0
2018-Jun-11 22:29N 40°40' W 074°00'0 0.0
2018-Jun-11 21:51N 40°40' W 074°00'0 0.1
2018-Jun-11 21:29N 40°40' W 074°00'0 0.0
2018-Jun-11 21:00N 40°40' W 074°00'0 0.0
2018-Jun-11 20:30N 40°40' W 074°00'0 0.0
2018-Jun-11 20:00N 40°40' W 074°00'0 0.0
2018-Jun-11 19:30N 40°40' W 074°00'0 0.0
2018-Jun-11 18:58N 40°40' W 074°00'0 0.0
2018-Jun-11 18:30N 40°40' W 074°00'0 0.0
2018-Jun-11 18:00N 40°40' W 074°00'0 0.0
2018-Jun-11 17:30N 40°40' W 074°00'0 0.0
2018-Jun-11 17:00N 40°40' W 074°00'0 0.0
2018-Jun-11 16:29N 40°40' W 074°00'0 0.0
2018-Jun-11 16:00N 40°40' W 074°00'0 0.0
2018-Jun-11 15:30N 40°40' W 074°00'0 0.0
2018-Jun-11 15:00N 40°40' W 074°00'0 0.0
2018-Jun-11 14:30N 40°40' W 074°00'0 0.0
2018-Jun-11 13:58N 40°40' W 074°00'0 0.1
2018-Jun-11 13:30N 40°40' W 074°00'4 8.9
2018-Jun-11 13:00N 40°39' W 074°06'0 0.1
2018-Jun-11 12:26N 40°39' W 074°06'0 0.0
2018-Jun-11 11:49N 40°39' W 074°06'0 0.0
2018-Jun-11 11:27N 40°39' W 074°06'0 0.0
2018-Jun-11 06:47N 40°39' W 074°06'0 0.0
2018-Jun-11 06:30N 40°39' W 074°06'0 0.0
2018-Jun-11 05:22N 40°39' W 074°06'0 0.0
2018-Jun-11 05:00N 40°39' W 074°06'0 0.0
2018-Jun-11 04:30N 40°39' W 074°06'0 0.0
2018-Jun-11 04:00N 40°39' W 074°06'0 0.0
2018-Jun-11 03:30N 40°39' W 074°06'0 0.0
2018-Jun-11 03:00N 40°39' W 074°06'1 2.9
2018-Jun-11 02:30N 40°39' W 074°08'3 6.3
2018-Jun-11 02:00N 40°38' W 074°12'0 0.0
2018-Jun-11 01:19N 40°38' W 074°12'0 0.0
2018-Jun-11 00:58N 40°38' W 074°12'0 0.0
2018-Jun-11 00:30N 40°38' W 074°12'0 0.1
2018-Jun-10 23:59N 40°38' W 074°12'2 4.7
2018-Jun-10 23:30N 40°38' W 074°09'2 4.8
2018-Jun-10 23:00N 40°39' W 074°06'0 0.0
2018-Jun-10 22:30N 40°39' W 074°06'0 0.0
2018-Jun-10 21:54N 40°39' W 074°06'0 0.1
2018-Jun-10 20:49N 40°39' W 074°06'1 1.7
2018-Jun-10 20:30N 40°39' W 074°07'0 1.0
2018-Jun-10 20:00N 40°39' W 074°07'0 0.4
2018-Jun-10 19:26N 40°39' W 074°07'0 0.0
2018-Jun-10 17:56N 40°39' W 074°07'3 7.7
2018-Jun-10 17:30N 40°39' W 074°03'2 4.7
2018-Jun-10 17:00N 40°40' W 074°00'0 0.0
2018-Jun-10 16:30N 40°40' W 074°00'0 0.0
2018-Jun-10 16:00N 40°40' W 074°00'0 0.0
2018-Jun-10 15:30N 40°40' W 074°00'0 0.0
2018-Jun-10 15:00N 40°40' W 074°00'0 0.0
2018-Jun-10 14:00N 40°40' W 074°00'0 0.0
2018-Jun-10 13:30N 40°40' W 074°00'0 0.0
2018-Jun-10 13:00N 40°40' W 074°00'0 0.0
2018-Jun-10 12:30N 40°40' W 074°00'0 0.0
2018-Jun-10 12:00N 40°40' W 074°00'0 0.0
2018-Jun-10 11:30N 40°40' W 074°00'0 0.0
2018-Jun-10 11:00N 40°40' W 074°00'0 0.0
2018-Jun-10 10:30N 40°40' W 074°00'0 0.0
2018-Jun-10 10:00N 40°40' W 074°00'2 4.3
2018-Jun-10 09:30N 40°41' W 074°03'3 5.2
2018-Jun-10 09:00N 40°38' W 074°04'0 0.0
2018-Jun-10 08:30N 40°38' W 074°04'0 0.0
2018-Jun-10 08:00N 40°38' W 074°04'0 0.1
2018-Jun-10 07:29N 40°38' W 074°04'0 0.0
2018-Jun-10 07:00N 40°38' W 074°04'0 0.0
2018-Jun-10 06:30N 40°38' W 074°04'0 0.0
2018-Jun-10 06:00N 40°38' W 074°04'0 0.1
2018-Jun-10 05:30N 40°38' W 074°04'0 0.1
2018-Jun-10 05:00N 40°38' W 074°04'0 0.0
2018-Jun-10 04:30N 40°38' W 074°04'0 0.0
2018-Jun-10 04:00N 40°38' W 074°04'0 0.0
2018-Jun-10 03:30N 40°38' W 074°04'0 0.0
2018-Jun-10 03:00N 40°38' W 074°04'0 0.0
2018-Jun-10 02:30N 40°38' W 074°04'0 0.0
2018-Jun-10 02:00N 40°38' W 074°04'0 0.1
2018-Jun-10 01:30N 40°38' W 074°04'0 0.1
2018-Jun-10 01:00N 40°38' W 074°04'1 1.7
2018-Jun-10 00:30N 40°37' W 074°04'0 0.3
2018-Jun-10 00:00N 40°38' W 074°04'0 0.2
2018-Jun-09 23:30N 40°38' W 074°04'0 0.0
2018-Jun-09 23:00N 40°38' W 074°04'0 0.0
2018-Jun-09 22:31N 40°38' W 074°04'0 0.0
2018-Jun-09 22:00N 40°38' W 074°04'0 0.0
2018-Jun-09 21:30N 40°38' W 074°04'0 0.0
2018-Jun-09 21:00N 40°38' W 074°04'0 0.1
2018-Jun-09 20:30N 40°38' W 074°04'0 0.1
2018-Jun-09 20:00N 40°38' W 074°04'0 0.1
2018-Jun-09 19:30N 40°38' W 074°04'0 0.0
2018-Jun-09 19:00N 40°38' W 074°04'0 0.0
2018-Jun-09 18:30N 40°38' W 074°04'1 2.2
2018-Jun-09 18:00N 40°39' W 074°03'2 4.2
2018-Jun-09 17:30N 40°41' W 074°03'0 0.0
2018-Jun-09 17:00N 40°41' W 074°03'0 0.0
2018-Jun-09 16:30N 40°41' W 074°03'0 0.0
2018-Jun-09 16:00N 40°41' W 074°03'1 2.3
2018-Jun-09 15:30N 40°40' W 074°03'2 2.4
2018-Jun-09 14:30N 40°39' W 074°06'0 0.0
2018-Jun-09 13:55N 40°39' W 074°06'4 8.6
2018-Jun-09 13:30N 40°39' W 074°02'2 3.1
2018-Jun-09 13:00N 40°40' W 074°00'0 0.0
2018-Jun-09 12:31N 40°40' W 074°00'1 2.3
2018-Jun-09 12:00N 40°39' W 074°01'5 1.7
2018-Jun-09 09:23N 40°39' W 074°07'0 0.0
2018-Jun-09 08:57N 40°38' W 074°07'0 0.0
2018-Jun-09 08:15N 40°38' W 074°07'0 0.0
2018-Jun-09 07:54N 40°38' W 074°07'0 0.0
2018-Jun-09 07:28N 40°39' W 074°07'0 0.0
2018-Jun-09 06:39N 40°38' W 074°07'0 2.2
2018-Jun-09 06:30N 40°39' W 074°08'3 6.3
2018-Jun-09 06:00N 40°38' W 074°12'0 0.0
2018-Jun-09 05:30N 40°38' W 074°12'0 0.0
2018-Jun-09 05:00N 40°38' W 074°12'0 0.0
2018-Jun-09 04:30N 40°38' W 074°12'0 0.0
2018-Jun-09 03:59N 40°38' W 074°12'0 0.0
2018-Jun-09 03:30N 40°38' W 074°12'0 0.0
2018-Jun-09 03:00N 40°38' W 074°12'0 0.0
2018-Jun-09 02:30N 40°38' W 074°12'0 0.0
2018-Jun-09 02:00N 40°38' W 074°12'  
Track history (hours):
 
Tides and Currents Weather Stations Pressure Air Temp Water Temp Dewpoint Dewpoint Depression Visibility Wind Speed Wind Dir Waves Ship Positions

HMS Liberty

Owner: Harley Marine Services, Inc., Seattle, WA. More information available from US FCC via Universal Licensing System and Coast Guard Vessel Documentation Center.

Last reported at 2018-Jun-19 01:30 UTC. Time now 2018-Jun-19 01:28 UTC.
Position N 40°37' W 074°03'.

Length 26 m.

Type: Towing. MMSI: 367100050.

Date/timePositionNaut miles runAvg speedWind from/ knotsBaromVisibWave heightAir tempDewpointWater temp
2018-Jun-19 01:30N 40°37' W 074°03'1 1.4
2018-Jun-19 01:00N 40°37' W 074°03'1 1.5
2018-Jun-19 00:30N 40°37' W 074°04'1 1.9
2018-Jun-19 00:00N 40°38' W 074°04'1 2.5
2018-Jun-18 23:30N 40°39' W 074°05'1 2.3
2018-Jun-18 23:00N 40°39' W 074°07'0 0.0
2018-Jun-18 22:30N 40°39' W 074°07'0 0.0
2018-Jun-18 22:00N 40°39' W 074°07'0 0.0
2018-Jun-18 21:30N 40°39' W 074°07'0 0.0
2018-Jun-18 20:58N 40°39' W 074°07'0 0.0
2018-Jun-18 20:30N 40°39' W 074°07'0 0.0
2018-Jun-18 20:00N 40°39' W 074°07'0 0.0
2018-Jun-18 19:30N 40°39' W 074°07'0 0.0
2018-Jun-18 19:00N 40°39' W 074°07'0 0.0
2018-Jun-18 18:30N 40°39' W 074°07'0 0.0
2018-Jun-18 18:00N 40°39' W 074°07'0 0.0
2018-Jun-18 17:30N 40°39' W 074°07'0 0.0
2018-Jun-18 17:00N 40°39' W 074°07'0 0.0
2018-Jun-18 16:30N 40°39' W 074°07'0 0.0
2018-Jun-18 16:00N 40°39' W 074°07'0 0.0
2018-Jun-18 15:30N 40°39' W 074°07'0 0.0
2018-Jun-18 15:00N 40°39' W 074°07'0 0.0
2018-Jun-18 14:30N 40°39' W 074°07'0 0.0
2018-Jun-18 14:00N 40°39' W 074°07'0 0.0
2018-Jun-18 13:30N 40°39' W 074°07'0 0.0
2018-Jun-18 13:00N 40°39' W 074°07'0 0.0
2018-Jun-18 12:29N 40°39' W 074°07'0 0.0
2018-Jun-18 11:59N 40°39' W 074°07'0 0.0
2018-Jun-18 11:30N 40°39' W 074°07'0 0.0
2018-Jun-18 11:00N 40°39' W 074°07'0 0.0
2018-Jun-18 10:30N 40°39' W 074°07'0 0.0
2018-Jun-18 10:00N 40°39' W 074°07'0 0.0
2018-Jun-18 09:30N 40°39' W 074°07'0 0.0
2018-Jun-18 09:00N 40°39' W 074°07'0 0.0
2018-Jun-18 08:30N 40°39' W 074°07'0 0.0
2018-Jun-18 08:00N 40°39' W 074°07'0 0.0
2018-Jun-18 07:30N 40°39' W 074°07'0 0.0
2018-Jun-18 07:00N 40°39' W 074°07'0 0.0
2018-Jun-18 06:30N 40°39' W 074°07'0 0.0
2018-Jun-18 06:00N 40°39' W 074°07'0 0.0
2018-Jun-18 05:30N 40°39' W 074°07'0 0.0
2018-Jun-18 05:00N 40°39' W 074°07'0 0.0
2018-Jun-18 04:30N 40°39' W 074°07'2 4.5
2018-Jun-18 04:00N 40°39' W 074°04'1 2.8
2018-Jun-18 03:30N 40°38' W 074°04'0 0.2
2018-Jun-18 03:00N 40°38' W 074°04'0 0.3
2018-Jun-18 02:30N 40°38' W 074°03'2 3.4
2018-Jun-18 02:00N 40°36' W 074°02'3 5.9
2018-Jun-18 01:28N 40°34' W 073°59'3 6.7
2018-Jun-18 01:00N 40°34' W 073°55'3 0.2
2018-Jun-17 13:37N 40°34' W 073°59'1 6.0
2018-Jun-17 13:30N 40°34' W 073°59'3 5.3
2018-Jun-17 13:00N 40°36' W 074°02'3 6.2
2018-Jun-17 12:26N 40°39' W 074°04'2 4.2
2018-Jun-17 12:00N 40°39' W 074°07'3 4.8
2018-Jun-17 11:26N 40°39' W 074°10'2 0.1
2018-Jun-16 22:34N 40°38' W 074°12'1 8.4
2018-Jun-16 22:30N 40°38' W 074°12'4 7.6
2018-Jun-16 22:00N 40°39' W 074°07'4 7.1
2018-Jun-16 21:30N 40°39' W 074°02'2 3.3
2018-Jun-16 21:00N 40°40' W 073°60'0 0.1
2018-Jun-16 20:30N 40°40' W 074°00'0 0.0
2018-Jun-16 20:00N 40°40' W 074°00'0 0.0
2018-Jun-16 19:30N 40°40' W 074°00'0 0.0
2018-Jun-16 19:00N 40°40' W 074°00'0 0.0
2018-Jun-16 18:31N 40°40' W 074°00'0 0.0
2018-Jun-16 18:00N 40°40' W 074°00'1 1.3
2018-Jun-16 17:30N 40°40' W 074°01'4 7.3
2018-Jun-16 17:00N 40°36' W 074°02'1 1.5
2018-Jun-16 16:28N 40°36' W 074°01'0 0.0
2018-Jun-16 15:36N 40°36' W 074°01'0 0.0
2018-Jun-16 15:26N 40°36' W 074°01'0 0.0
2018-Jun-16 14:51N 40°36' W 074°01'0 0.1
2018-Jun-16 14:30N 40°36' W 074°01'0 0.1
2018-Jun-16 13:57N 40°36' W 074°01'0 0.0
2018-Jun-16 12:19N 40°36' W 074°01'0 0.0
2018-Jun-16 11:58N 40°36' W 074°01'0 0.1
2018-Jun-16 11:27N 40°36' W 074°01'0 0.1
2018-Jun-16 11:00N 40°36' W 074°01'0 0.3
2018-Jun-16 10:28N 40°36' W 074°01'0 0.2
2018-Jun-16 09:58N 40°36' W 074°01'0 0.0
2018-Jun-16 09:29N 40°36' W 074°01'2 4.4
2018-Jun-16 09:00N 40°37' W 074°03'2 4.7
2018-Jun-16 08:30N 40°39' W 074°06'0 0.0
2018-Jun-16 08:00N 40°39' W 074°06'0 0.0
2018-Jun-16 07:30N 40°39' W 074°06'0 0.0
2018-Jun-16 07:00N 40°39' W 074°06'0 0.0
2018-Jun-16 06:30N 40°39' W 074°06'0 0.0
2018-Jun-16 06:00N 40°39' W 074°06'0 0.2
2018-Jun-16 05:30N 40°39' W 074°06'5 4.9
2018-Jun-16 04:30N 40°38' W 074°12'1 1.2
2018-Jun-16 03:48N 40°38' W 074°12'0 0.0
2018-Jun-16 03:27N 40°38' W 074°12'0 0.0
2018-Jun-16 02:40N 40°38' W 074°12'0 0.4
2018-Jun-16 02:15N 40°38' W 074°11'2 6.9
2018-Jun-16 01:59N 40°39' W 074°09'4 8.8
2018-Jun-16 01:30N 40°39' W 074°04'3 5.8
2018-Jun-16 01:00N 40°40' W 074°00'0 0.1
2018-Jun-16 00:30N 40°40' W 074°00'0 0.0
2018-Jun-16 00:00N 40°40' W 074°00'0 0.0
2018-Jun-15 23:30N 40°40' W 074°00'0 0.0
2018-Jun-15 23:00N 40°40' W 074°00'0 0.0
2018-Jun-15 22:30N 40°40' W 074°00'0 0.0
2018-Jun-15 22:00N 40°40' W 074°00'3 5.1
2018-Jun-15 21:30N 40°39' W 074°03'2 4.0
2018-Jun-15 21:00N 40°39' W 074°06'0 0.0
2018-Jun-15 20:30N 40°39' W 074°06'0 0.0
2018-Jun-15 19:51N 40°39' W 074°06'0 0.0
2018-Jun-15 19:30N 40°39' W 074°06'0 0.0
2018-Jun-15 19:00N 40°39' W 074°06'1 1.2
2018-Jun-15 17:50N 40°39' W 074°08'2 0.8
2018-Jun-15 15:40N 40°39' W 074°10'1 5.8
2018-Jun-15 15:30N 40°38' W 074°09'2 3.4
2018-Jun-15 14:59N 40°39' W 074°06'2 4.5
2018-Jun-15 14:31N 40°39' W 074°04'0 0.3
2018-Jun-15 14:00N 40°39' W 074°04'0 0.1
2018-Jun-15 13:30N 40°39' W 074°04'3 6.2
2018-Jun-15 13:01N 40°40' W 074°00'1 1.8
2018-Jun-15 12:30N 40°40' W 074°01'5 7.1
2018-Jun-15 11:45N 40°34' W 074°01'2 8.2
2018-Jun-15 11:30N 40°34' W 073°58'8 0.4
2018-Jun-14 13:58N 40°36' W 073°48'2 4.6
2018-Jun-14 13:28N 40°35' W 073°51'5 7.9
2018-Jun-14 12:48N 40°34' W 073°57'3 7.2
2018-Jun-14 12:23N 40°34' W 074°01'3 6.7
2018-Jun-14 12:00N 40°37' W 074°03'3 6.0
2018-Jun-14 11:30N 40°39' W 074°05'3 5.2
2018-Jun-14 10:57N 40°39' W 074°09'3 7.0
2018-Jun-14 10:30N 40°42' W 074°07'0 1.0
2018-Jun-14 10:00N 40°42' W 074°07'0 0.0
2018-Jun-14 09:30N 40°42' W 074°07'0 0.0
2018-Jun-14 09:00N 40°42' W 074°07'0 0.0
2018-Jun-14 08:30N 40°42' W 074°07'0 0.0
2018-Jun-14 08:00N 40°42' W 074°07'0 0.0
2018-Jun-14 07:30N 40°42' W 074°07'0 0.0
2018-Jun-14 07:00N 40°42' W 074°07'0 0.0
2018-Jun-14 06:30N 40°42' W 074°07'0 0.0
2018-Jun-14 06:00N 40°42' W 074°07'0 0.0
2018-Jun-14 05:30N 40°42' W 074°07'0 0.0
2018-Jun-14 05:00N 40°42' W 074°07'0 0.0
2018-Jun-14 04:30N 40°42' W 074°07'0 0.0
2018-Jun-14 04:00N 40°42' W 074°07'0 0.0
2018-Jun-14 03:30N 40°42' W 074°07'0 0.0
2018-Jun-14 03:00N 40°42' W 074°07'0 0.0
2018-Jun-14 02:30N 40°42' W 074°07'2 4.3
2018-Jun-14 01:59N 40°40' W 074°08'4 0.3
2018-Jun-13 11:22N 40°38' W 074°12'2 6.9
2018-Jun-13 11:00N 40°39' W 074°09'4 8.7
2018-Jun-13 10:30N 40°39' W 074°03'2 5.0
2018-Jun-13 10:00N 40°40' W 074°00'0 0.0
2018-Jun-13 09:30N 40°40' W 074°00'0 0.0
2018-Jun-13 09:00N 40°40' W 074°00'0 0.0
2018-Jun-13 08:30N 40°40' W 074°00'0 0.0
2018-Jun-13 08:00N 40°40' W 074°00'2 3.9
2018-Jun-13 07:30N 40°39' W 074°02'3 4.6
2018-Jun-13 06:55N 40°39' W 074°06'0 0.0
2018-Jun-13 06:25N 40°39' W 074°06'0 0.0
2018-Jun-13 06:00N 40°39' W 074°06'0 0.0
2018-Jun-13 05:30N 40°39' W 074°06'0 0.0
2018-Jun-13 04:59N 40°39' W 074°06'0 0.0
2018-Jun-13 04:30N 40°39' W 074°06'0 0.0
2018-Jun-13 04:00N 40°39' W 074°06'1 1.9
2018-Jun-13 03:30N 40°39' W 074°05'4 7.2
2018-Jun-13 03:00N 40°36' W 074°02'1 0.5
2018-Jun-13 01:55N 40°36' W 074°01'0 0.1
2018-Jun-13 01:29N 40°36' W 074°01'0 0.0
2018-Jun-13 00:33N 40°36' W 074°01'0 0.1
2018-Jun-13 00:29N 40°36' W 074°01'0 0.0
2018-Jun-13 00:00N 40°36' W 074°01'0 0.0
2018-Jun-12 23:29N 40°36' W 074°01'0 0.0
2018-Jun-12 22:59N 40°36' W 074°01'0 0.0
2018-Jun-12 22:30N 40°36' W 074°01'0 0.0
2018-Jun-12 21:59N 40°36' W 074°01'0 0.0
2018-Jun-12 21:25N 40°36' W 074°01'0 0.0
2018-Jun-12 21:00N 40°36' W 074°01'0 0.0
2018-Jun-12 20:29N 40°36' W 074°01'0 0.0
2018-Jun-12 20:00N 40°36' W 074°01'0 0.1
2018-Jun-12 19:30N 40°36' W 074°01'0 0.0
2018-Jun-12 18:59N 40°36' W 074°01'0 0.0
2018-Jun-12 18:27N 40°36' W 074°01'0 0.0
2018-Jun-12 18:01N 40°36' W 074°01'0 0.4
2018-Jun-12 17:30N 40°36' W 074°01'3 5.5
2018-Jun-12 17:00N 40°38' W 074°03'3 5.2
2018-Jun-12 16:30N 40°40' W 074°00'0 0.0
2018-Jun-12 16:00N 40°40' W 074°00'0 0.0
2018-Jun-12 15:30N 40°40' W 074°00'0 0.0
2018-Jun-12 15:00N 40°40' W 073°60'0 0.0
2018-Jun-12 14:30N 40°40' W 074°00'0 0.0
2018-Jun-12 14:00N 40°40' W 074°00'0 0.0
2018-Jun-12 13:30N 40°40' W 074°00'0 0.0
2018-Jun-12 13:00N 40°40' W 074°00'0 0.0
2018-Jun-12 12:30N 40°40' W 074°00'0 0.0
2018-Jun-12 12:00N 40°40' W 074°00'0 0.0
2018-Jun-12 11:30N 40°40' W 074°00'0 0.0
2018-Jun-12 11:00N 40°40' W 074°00'0 0.0
2018-Jun-12 10:28N 40°40' W 074°00'0 0.0
2018-Jun-12 10:00N 40°40' W 074°00'0 0.0
2018-Jun-12 09:30N 40°40' W 073°60'0 0.0
2018-Jun-12 09:00N 40°40' W 074°00'0 0.0
2018-Jun-12 06:20N 40°40' W 074°00'0 0.0
2018-Jun-12 05:59N 40°40' W 074°00'0 0.0
2018-Jun-12 05:30N 40°40' W 074°00'0 0.0
2018-Jun-12 04:47N 40°40' W 074°00'0 0.0
2018-Jun-12 04:20N 40°40' W 074°00'0 0.0
2018-Jun-12 03:23N 40°40' W 074°00'0 0.0
2018-Jun-12 02:50N 40°40' W 074°00'0 0.0
2018-Jun-12 02:17N 40°40' W 074°00'0 0.0
2018-Jun-12 01:56N 40°40' W 074°00'0 0.0
2018-Jun-12 01:11N 40°40' W 074°00'0 0.0
2018-Jun-12 00:53N 40°40' W 074°00'0 0.0
2018-Jun-12 00:14N 40°40' W 074°00'0 0.0
2018-Jun-12 00:00N 40°40' W 074°00'0 0.0
2018-Jun-11 23:29N 40°40' W 074°00'0 0.0
2018-Jun-11 22:49N 40°40' W 074°00'0 0.0
2018-Jun-11 22:29N 40°40' W 074°00'0 0.0
2018-Jun-11 21:51N 40°40' W 074°00'0 0.1
2018-Jun-11 21:29N 40°40' W 074°00'0 0.0
2018-Jun-11 21:00N 40°40' W 074°00'0 0.0
2018-Jun-11 20:30N 40°40' W 074°00'0 0.0
2018-Jun-11 20:00N 40°40' W 074°00'0 0.0
2018-Jun-11 19:30N 40°40' W 074°00'0 0.0
2018-Jun-11 18:58N 40°40' W 074°00'0 0.0
2018-Jun-11 18:30N 40°40' W 074°00'0 0.0
2018-Jun-11 18:00N 40°40' W 074°00'0 0.0
2018-Jun-11 17:30N 40°40' W 074°00'0 0.0
2018-Jun-11 17:00N 40°40' W 074°00'0 0.0
2018-Jun-11 16:29N 40°40' W 074°00'0 0.0
2018-Jun-11 16:00N 40°40' W 074°00'0 0.0
2018-Jun-11 15:30N 40°40' W 074°00'0 0.0
2018-Jun-11 15:00N 40°40' W 074°00'0 0.0
2018-Jun-11 14:30N 40°40' W 074°00'0 0.0
2018-Jun-11 13:58N 40°40' W 074°00'0 0.1
2018-Jun-11 13:30N 40°40' W 074°00'4 8.9
2018-Jun-11 13:00N 40°39' W 074°06'0 0.1
2018-Jun-11 12:26N 40°39' W 074°06'0 0.0
2018-Jun-11 11:49N 40°39' W 074°06'0 0.0
2018-Jun-11 11:27N 40°39' W 074°06'0 0.0
2018-Jun-11 06:47N 40°39' W 074°06'0 0.0
2018-Jun-11 06:30N 40°39' W 074°06'0 0.0
2018-Jun-11 05:22N 40°39' W 074°06'0 0.0
2018-Jun-11 05:00N 40°39' W 074°06'0 0.0
2018-Jun-11 04:30N 40°39' W 074°06'0 0.0
2018-Jun-11 04:00N 40°39' W 074°06'0 0.0
2018-Jun-11 03:30N 40°39' W 074°06'0 0.0
2018-Jun-11 03:00N 40°39' W 074°06'1 2.9
2018-Jun-11 02:30N 40°39' W 074°08'3 6.3
2018-Jun-11 02:00N 40°38' W 074°12'0 0.0
2018-Jun-11 01:19N 40°38' W 074°12'0 0.0
2018-Jun-11 00:58N 40°38' W 074°12'0 0.0
2018-Jun-11 00:30N 40°38' W 074°12'0 0.1
2018-Jun-10 23:59N 40°38' W 074°12'2 4.7
2018-Jun-10 23:30N 40°38' W 074°09'2 4.8
2018-Jun-10 23:00N 40°39' W 074°06'0 0.0
2018-Jun-10 22:30N 40°39' W 074°06'0 0.0
2018-Jun-10 21:54N 40°39' W 074°06'0 0.1
2018-Jun-10 20:49N 40°39' W 074°06'1 1.7
2018-Jun-10 20:30N 40°39' W 074°07'0 1.0
2018-Jun-10 20:00N 40°39' W 074°07'0 0.4
2018-Jun-10 19:26N 40°39' W 074°07'0 0.0
2018-Jun-10 17:56N 40°39' W 074°07'3 7.7
2018-Jun-10 17:30N 40°39' W 074°03'2 4.7
2018-Jun-10 17:00N 40°40' W 074°00'0 0.0
2018-Jun-10 16:30N 40°40' W 074°00'0 0.0
2018-Jun-10 16:00N 40°40' W 074°00'0 0.0
2018-Jun-10 15:30N 40°40' W 074°00'0 0.0
2018-Jun-10 15:00N 40°40' W 074°00'0 0.0
2018-Jun-10 14:00N 40°40' W 074°00'0 0.0
2018-Jun-10 13:30N 40°40' W 074°00'0 0.0
2018-Jun-10 13:00N 40°40' W 074°00'0 0.0
2018-Jun-10 12:30N 40°40' W 074°00'0 0.0
2018-Jun-10 12:00N 40°40' W 074°00'0 0.0
2018-Jun-10 11:30N 40°40' W 074°00'0 0.0
2018-Jun-10 11:00N 40°40' W 074°00'0 0.0
2018-Jun-10 10:30N 40°40' W 074°00'0 0.0
2018-Jun-10 10:00N 40°40' W 074°00'2 4.3
2018-Jun-10 09:30N 40°41' W 074°03'3 5.2
2018-Jun-10 09:00N 40°38' W 074°04'0 0.0
2018-Jun-10 08:30N 40°38' W 074°04'0 0.0
2018-Jun-10 08:00N 40°38' W 074°04'0 0.1
2018-Jun-10 07:29N 40°38' W 074°04'0 0.0
2018-Jun-10 07:00N 40°38' W 074°04'0 0.0
2018-Jun-10 06:30N 40°38' W 074°04'0 0.0
2018-Jun-10 06:00N 40°38' W 074°04'0 0.1
2018-Jun-10 05:30N 40°38' W 074°04'0 0.1
2018-Jun-10 05:00N 40°38' W 074°04'0 0.0
2018-Jun-10 04:30N 40°38' W 074°04'0 0.0
2018-Jun-10 04:00N 40°38' W 074°04'0 0.0
2018-Jun-10 03:30N 40°38' W 074°04'0 0.0
2018-Jun-10 03:00N 40°38' W 074°04'0 0.0
2018-Jun-10 02:30N 40°38' W 074°04'0 0.0
2018-Jun-10 02:00N 40°38' W 074°04'0 0.1
2018-Jun-10 01:30N 40°38' W 074°04'0 0.1
2018-Jun-10 01:00N 40°38' W 074°04'1 1.7
2018-Jun-10 00:30N 40°37' W 074°04'0 0.3
2018-Jun-10 00:00N 40°38' W 074°04'0 0.2
2018-Jun-09 23:30N 40°38' W 074°04'0 0.0
2018-Jun-09 23:00N 40°38' W 074°04'0 0.0
2018-Jun-09 22:31N 40°38' W 074°04'0 0.0
2018-Jun-09 22:00N 40°38' W 074°04'0 0.0
2018-Jun-09 21:30N 40°38' W 074°04'0 0.0
2018-Jun-09 21:00N 40°38' W 074°04'0 0.1
2018-Jun-09 20:30N 40°38' W 074°04'0 0.1
2018-Jun-09 20:00N 40°38' W 074°04'0 0.1
2018-Jun-09 19:30N 40°38' W 074°04'0 0.0
2018-Jun-09 19:00N 40°38' W 074°04'0 0.0
2018-Jun-09 18:30N 40°38' W 074°04'1 2.2
2018-Jun-09 18:00N 40°39' W 074°03'2 4.2
2018-Jun-09 17:30N 40°41' W 074°03'0 0.0
2018-Jun-09 17:00N 40°41' W 074°03'0 0.0
2018-Jun-09 16:30N 40°41' W 074°03'0 0.0
2018-Jun-09 16:00N 40°41' W 074°03'1 2.3
2018-Jun-09 15:30N 40°40' W 074°03'2 2.4
2018-Jun-09 14:30N 40°39' W 074°06'0 0.0
2018-Jun-09 13:55N 40°39' W 074°06'4 8.6
2018-Jun-09 13:30N 40°39' W 074°02'2 3.1
2018-Jun-09 13:00N 40°40' W 074°00'0 0.0
2018-Jun-09 12:31N 40°40' W 074°00'1 2.3
2018-Jun-09 12:00N 40°39' W 074°01'5 1.7
2018-Jun-09 09:23N 40°39' W 074°07'0 0.0
2018-Jun-09 08:57N 40°38' W 074°07'0 0.0
2018-Jun-09 08:15N 40°38' W 074°07'0 0.0
2018-Jun-09 07:54N 40°38' W 074°07'0 0.0
2018-Jun-09 07:28N 40°39' W 074°07'0 0.0
2018-Jun-09 06:39N 40°38' W 074°07'0 2.2
2018-Jun-09 06:30N 40°39' W 074°08'3 6.3
2018-Jun-09 06:00N 40°38' W 074°12'0 0.0
2018-Jun-09 05:30N 40°38' W 074°12'0 0.0
2018-Jun-09 05:00N 40°38' W 074°12'0 0.0
2018-Jun-09 04:30N 40°38' W 074°12'0 0.0
2018-Jun-09 03:59N 40°38' W 074°12'0 0.0
2018-Jun-09 03:30N 40°38' W 074°12'0 0.0
2018-Jun-09 03:00N 40°38' W 074°12'0 0.0
2018-Jun-09 02:30N 40°38' W 074°12'0 0.0
2018-Jun-09 02:00N 40°38' W 074°12'  

Dump ship's entire track history